createdAt,value
2023-12-17T00:02:00.416Z,18.70
2023-12-17T00:04:27.459Z,21.13
2023-12-17T00:06:54.665Z,18.43
2023-12-17T00:09:22.318Z,18.83
2023-12-17T00:11:50.232Z,19.27
2023-12-17T00:14:17.444Z,19.67
2023-12-17T00:16:44.418Z,19.70
2023-12-17T00:19:11.622Z,19.97
2023-12-17T00:21:38.575Z,18.87
2023-12-17T00:24:05.864Z,18.50
2023-12-17T00:26:33.168Z,18.00
2023-12-17T00:29:00.241Z,18.77
2023-12-17T00:31:27.283Z,19.30
2023-12-17T00:33:54.410Z,17.70
2023-12-17T00:36:21.562Z,18.73
2023-12-17T00:38:48.720Z,18.40
2023-12-17T00:41:15.900Z,18.40
2023-12-17T00:43:43.009Z,18.73
2023-12-17T00:46:10.263Z,18.57
2023-12-17T00:48:37.377Z,17.93
2023-12-17T00:51:05.578Z,18.47
2023-12-17T00:53:32.584Z,17.97
2023-12-17T00:55:59.619Z,17.40
2023-12-17T00:58:26.526Z,18.40
2023-12-17T01:00:55.873Z,18.07
2023-12-17T01:03:23.542Z,17.27
2023-12-17T01:05:50.702Z,18.27
2023-12-17T01:08:18.334Z,16.93
2023-12-17T01:10:46.320Z,18.27
2023-12-17T01:13:13.288Z,18.57
2023-12-17T01:15:40.468Z,17.90
2023-12-17T01:18:07.551Z,18.33
2023-12-17T01:20:34.561Z,18.53
2023-12-17T01:23:01.585Z,18.30
2023-12-17T01:25:28.474Z,18.17
2023-12-17T01:27:55.507Z,19.30
2023-12-17T01:30:22.504Z,19.10
2023-12-17T01:32:49.654Z,19.03
2023-12-17T01:35:16.748Z,20.87
2023-12-17T01:37:43.764Z,20.77
2023-12-17T01:40:11.701Z,21.30
2023-12-17T01:42:39.083Z,19.07
2023-12-17T01:45:07.445Z,19.87
2023-12-17T01:47:34.802Z,22.47
2023-12-17T01:50:02.154Z,21.90
2023-12-17T01:52:29.567Z,22.00
2023-12-17T01:54:56.641Z,21.40
2023-12-17T01:57:23.891Z,21.40
2023-12-17T01:59:51.750Z,21.60
2023-12-17T02:02:18.725Z,18.23
2023-12-17T02:04:46.069Z,23.00
2023-12-17T02:07:13.081Z,22.70
2023-12-17T02:09:40.087Z,21.47
2023-12-17T02:12:07.277Z,21.87
2023-12-17T02:14:34.271Z,22.17
2023-12-17T02:17:01.226Z,21.43
2023-12-17T02:19:28.411Z,23.53
2023-12-17T02:21:55.632Z,22.03
2023-12-17T02:24:22.707Z,22.97
2023-12-17T02:26:49.751Z,22.47
2023-12-17T02:29:16.823Z,23.07
2023-12-17T02:31:43.809Z,24.17
2023-12-17T02:34:10.872Z,22.33
2023-12-17T02:36:40.046Z,23.43
2023-12-17T02:39:09.877Z,22.57
2023-12-17T02:41:36.862Z,23.23
2023-12-17T02:44:03.935Z,22.97
2023-12-17T02:46:30.973Z,23.50
2023-12-17T02:48:58.145Z,24.97
2023-12-17T02:51:25.261Z,23.50
2023-12-17T02:53:52.168Z,23.87
2023-12-17T02:56:19.281Z,25.00
2023-12-17T02:58:46.163Z,23.57
2023-12-17T03:01:13.146Z,24.00
2023-12-17T03:03:40.410Z,24.27
2023-12-17T03:06:07.627Z,23.70
2023-12-17T03:08:34.765Z,24.47
2023-12-17T03:11:01.707Z,25.03
2023-12-17T03:13:28.724Z,24.40
2023-12-17T03:15:55.676Z,25.63
2023-12-17T03:18:23.177Z,24.87
2023-12-17T03:20:50.156Z,25.17
2023-12-17T03:23:19.019Z,22.57
2023-12-17T03:25:45.965Z,25.13
2023-12-17T03:28:12.992Z,25.30
2023-12-17T03:30:40.099Z,26.77
2023-12-17T03:33:07.344Z,25.07
2023-12-17T03:35:34.490Z,24.97
2023-12-17T03:38:01.482Z,25.33
2023-12-17T03:40:28.391Z,25.70
2023-12-17T03:42:55.433Z,24.57
2023-12-17T03:45:22.505Z,25.77
2023-12-17T03:47:50.297Z,25.87
2023-12-17T03:50:18.178Z,26.77
2023-12-17T03:52:49.129Z,26.47
2023-12-17T03:55:16.536Z,25.33
2023-12-17T03:57:43.549Z,27.03
2023-12-17T04:00:11.693Z,27.00
2023-12-17T04:02:38.671Z,27.23
2023-12-17T04:05:06.644Z,26.87
2023-12-17T04:07:33.583Z,27.17
2023-12-17T04:10:04.840Z,27.87
2023-12-17T04:12:31.847Z,25.83
2023-12-17T04:14:58.821Z,27.03
2023-12-17T04:17:25.797Z,27.60
2023-12-17T04:19:53.012Z,26.67
2023-12-17T04:22:19.996Z,27.20
2023-12-17T04:24:47.188Z,27.00
2023-12-17T04:27:14.166Z,26.70
2023-12-17T04:29:42.655Z,26.07
2023-12-17T04:32:09.679Z,27.57
2023-12-17T04:34:36.593Z,26.53
2023-12-17T04:37:03.823Z,27.40
2023-12-17T04:39:31.036Z,28.47
2023-12-17T04:41:58.033Z,28.20
2023-12-17T04:44:25.263Z,27.70
2023-12-17T04:46:52.451Z,28.70
2023-12-17T04:49:20.075Z,28.63
2023-12-17T04:51:47.024Z,28.50
2023-12-17T04:54:16.479Z,28.43
2023-12-17T04:56:43.510Z,29.50
2023-12-17T04:59:10.511Z,30.53
2023-12-17T05:01:37.626Z,29.43
2023-12-17T05:04:04.810Z,29.13
2023-12-17T05:06:31.856Z,29.00
2023-12-17T05:08:59.025Z,30.23
2023-12-17T05:11:26.157Z,29.80
2023-12-17T05:13:53.057Z,29.87
2023-12-17T05:16:20.500Z,30.70
2023-12-17T05:18:47.530Z,30.70
2023-12-17T05:21:14.675Z,29.30
2023-12-17T05:23:41.646Z,28.87
2023-12-17T05:26:08.688Z,29.03
2023-12-17T05:28:35.940Z,29.87
2023-12-17T05:31:03.056Z,29.17
2023-12-17T05:33:30.142Z,29.13
2023-12-17T05:35:57.318Z,29.37
2023-12-17T05:38:24.423Z,27.97
2023-12-17T05:40:51.465Z,28.83
2023-12-17T05:43:18.566Z,29.73
2023-12-17T05:45:51.292Z,27.27
2023-12-17T05:48:25.573Z,27.27
2023-12-17T05:50:52.754Z,29.90
2023-12-17T05:53:22.994Z,28.97
2023-12-17T05:55:50.378Z,28.80
2023-12-17T05:58:17.321Z,28.10
2023-12-17T06:00:44.411Z,27.63
2023-12-17T06:03:11.459Z,28.47
2023-12-17T06:05:38.511Z,27.40
2023-12-17T06:08:05.633Z,25.87
2023-12-17T06:10:32.762Z,28.17
2023-12-17T06:13:00.415Z,27.57
2023-12-17T06:15:27.568Z,28.30
2023-12-17T06:17:54.802Z,28.23
2023-12-17T06:20:22.193Z,27.37
2023-12-17T06:22:51.281Z,28.40
2023-12-17T06:25:18.389Z,26.30
2023-12-17T06:27:45.379Z,28.53
2023-12-17T06:30:12.892Z,28.57
2023-12-17T06:32:40.010Z,29.83
2023-12-17T06:35:07.280Z,28.27
2023-12-17T06:37:34.390Z,28.23
2023-12-17T06:40:01.411Z,27.43
2023-12-17T06:42:28.379Z,28.13
2023-12-17T06:44:55.496Z,26.90
2023-12-17T06:47:28.066Z,27.77
2023-12-17T06:49:57.103Z,27.23
2023-12-17T06:52:24.037Z,27.80
2023-12-17T06:54:50.911Z,25.47
2023-12-17T06:57:17.837Z,27.13
2023-12-17T06:59:45.214Z,27.37
2023-12-17T07:02:12.247Z,26.80
2023-12-17T07:04:39.282Z,27.30
2023-12-17T07:07:06.451Z,26.63
2023-12-17T07:09:34.287Z,27.23
2023-12-17T07:12:01.679Z,26.73
2023-12-17T07:14:28.672Z,26.67
2023-12-17T07:16:58.241Z,27.23
2023-12-17T07:19:26.968Z,27.97
2023-12-17T07:21:53.919Z,28.50
2023-12-17T07:24:21.025Z,28.40
2023-12-17T07:26:49.755Z,27.10
2023-12-17T07:29:16.830Z,27.07
2023-12-17T07:31:43.695Z,28.00
2023-12-17T07:34:11.869Z,27.37
2023-12-17T07:36:38.958Z,27.80
2023-12-17T07:39:06.378Z,29.00
2023-12-17T07:41:33.644Z,27.97
2023-12-17T07:44:00.527Z,27.33
2023-12-17T07:46:27.642Z,27.37
2023-12-17T07:48:54.735Z,26.57
2023-12-17T07:51:22.131Z,26.07
2023-12-17T07:53:49.141Z,26.03
2023-12-17T07:56:16.204Z,28.00
2023-12-17T07:58:43.231Z,27.77
2023-12-17T08:01:10.798Z,25.93
2023-12-17T08:03:38.034Z,26.97
2023-12-17T08:06:05.281Z,26.90
2023-12-17T08:08:32.626Z,25.63
2023-12-17T08:10:59.695Z,26.63
2023-12-17T08:13:27.520Z,25.73
2023-12-17T08:15:56.130Z,26.57
2023-12-17T08:18:23.333Z,25.17
2023-12-17T08:20:50.467Z,26.03
2023-12-17T08:23:17.716Z,26.13
2023-12-17T08:25:44.764Z,26.50
2023-12-17T08:28:11.770Z,26.27
2023-12-17T08:30:41.072Z,25.93
2023-12-17T08:33:08.371Z,24.80
2023-12-17T08:35:38.318Z,27.23
2023-12-17T08:38:07.303Z,26.67
2023-12-17T08:40:35.278Z,25.63
2023-12-17T08:43:02.984Z,24.23
2023-12-17T08:45:30.178Z,24.80
2023-12-17T08:47:57.692Z,25.17
2023-12-17T08:50:24.797Z,25.17
2023-12-17T08:52:52.389Z,23.77
2023-12-17T08:55:20.892Z,25.67
2023-12-17T08:57:48.641Z,24.53
2023-12-17T09:00:19.222Z,24.03
2023-12-17T09:02:46.391Z,24.40
2023-12-17T09:05:14.208Z,24.23
2023-12-17T09:07:41.895Z,23.80
2023-12-17T09:10:09.351Z,25.13
2023-12-17T09:12:36.505Z,25.63
2023-12-17T09:15:03.815Z,25.03
2023-12-17T09:17:30.986Z,24.73
2023-12-17T09:19:58.077Z,25.23
2023-12-17T09:22:25.245Z,24.50
2023-12-17T09:24:52.430Z,26.10
2023-12-17T09:27:20.680Z,25.97
2023-12-17T09:29:47.682Z,25.10
2023-12-17T09:32:14.726Z,26.20
2023-12-17T09:34:41.671Z,26.20
2023-12-17T09:37:08.762Z,26.83
2023-12-17T09:39:35.922Z,27.10
2023-12-17T09:42:03.123Z,27.60
2023-12-17T09:44:30.252Z,27.53
2023-12-17T09:46:57.260Z,28.57
2023-12-17T09:49:24.441Z,28.53
2023-12-17T09:52:01.166Z,29.33
2023-12-17T09:54:28.340Z,33.90
2023-12-17T09:56:56.102Z,29.97
2023-12-17T09:59:24.024Z,27.40
2023-12-17T10:01:52.888Z,29.40
2023-12-17T10:04:27.100Z,27.33
2023-12-17T10:06:54.438Z,29.33
2023-12-17T10:09:21.625Z,28.20
2023-12-17T10:11:49.121Z,27.57
2023-12-17T10:14:27.925Z,27.60
2023-12-17T10:16:55.008Z,28.27
2023-12-17T10:19:22.885Z,28.60
2023-12-17T10:21:51.228Z,27.43
2023-12-17T10:24:19.645Z,26.77
2023-12-17T10:26:48.170Z,26.97
2023-12-17T10:29:18.196Z,24.83
2023-12-17T10:31:46.480Z,26.37
2023-12-17T10:34:21.907Z,27.27
2023-12-17T10:36:53.456Z,24.80
2023-12-17T10:39:21.617Z,25.67
2023-12-17T10:41:49.505Z,25.10
2023-12-17T10:44:17.123Z,26.93
2023-12-17T10:46:45.210Z,27.20
2023-12-17T10:49:13.630Z,26.23
2023-12-17T10:51:43.610Z,28.10
2023-12-17T10:54:14.200Z,26.43
2023-12-17T10:56:48.422Z,26.73
2023-12-17T10:59:27.205Z,27.23
2023-12-17T11:02:04.861Z,26.83
2023-12-17T11:04:31.847Z,27.40
2023-12-17T11:06:58.969Z,26.10
2023-12-17T11:09:26.427Z,27.77
2023-12-17T11:11:54.216Z,25.47
2023-12-17T11:14:21.447Z,26.47
2023-12-17T11:16:48.543Z,27.00
2023-12-17T11:19:15.641Z,25.90
2023-12-17T11:21:44.072Z,27.13
2023-12-17T11:24:11.986Z,29.80
2023-12-17T11:26:45.351Z,26.87
2023-12-17T11:29:36.313Z,30.15
2023-12-17T11:32:03.470Z,28.20
2023-12-17T11:34:32.432Z,27.87
2023-12-17T11:37:00.419Z,26.43
2023-12-17T11:39:28.992Z,25.90
2023-12-17T11:41:56.344Z,26.07
2023-12-17T11:44:24.167Z,27.33
2023-12-17T11:46:51.694Z,26.53
2023-12-17T11:49:26.226Z,26.53
2023-12-17T11:51:54.931Z,26.80
2023-12-17T11:54:24.393Z,26.93
2023-12-17T11:56:51.693Z,26.53
2023-12-17T11:59:35.170Z,27.40
2023-12-17T12:02:04.282Z,25.70
2023-12-17T12:04:47.682Z,27.63
2023-12-17T12:07:20.709Z,26.93
2023-12-17T12:09:49.031Z,26.30
2023-12-17T12:12:20.647Z,27.07
2023-12-17T12:14:52.023Z,28.03
2023-12-17T12:17:42.924Z,26.77
2023-12-17T12:20:14.474Z,28.33
2023-12-17T12:22:46.802Z,25.80
2023-12-17T12:25:21.457Z,27.97
2023-12-17T12:27:48.652Z,27.50
2023-12-17T12:30:26.288Z,27.57
2023-12-17T12:32:53.617Z,26.67
2023-12-17T12:35:30.786Z,29.63
2023-12-17T12:37:58.612Z,28.33
2023-12-17T12:40:34.910Z,27.30
2023-12-17T12:43:03.390Z,26.37
2023-12-17T12:45:33.068Z,26.97
2023-12-17T12:48:01.347Z,26.97
2023-12-17T12:50:28.825Z,28.63
2023-12-17T12:52:55.875Z,27.27
2023-12-17T12:55:23.006Z,27.53
2023-12-17T12:57:50.083Z,28.57
2023-12-17T13:00:17.808Z,27.87
2023-12-17T13:02:45.364Z,27.83
2023-12-17T13:05:12.590Z,29.03
2023-12-17T13:07:40.512Z,28.63
2023-12-17T13:10:11.254Z,29.37
2023-12-17T13:12:38.849Z,28.77
2023-12-17T13:15:06.374Z,30.20
2023-12-17T13:17:33.959Z,29.10
2023-12-17T13:20:01.252Z,29.67
2023-12-17T13:22:28.510Z,30.63
2023-12-17T13:24:55.598Z,29.70
2023-12-17T13:27:22.690Z,35.45
2023-12-17T13:29:49.858Z,30.67
2023-12-17T13:32:16.970Z,29.20
2023-12-17T13:34:45.335Z,29.77
2023-12-17T13:37:12.757Z,29.87
2023-12-17T13:39:40.302Z,29.87
2023-12-17T13:42:07.687Z,29.67
2023-12-17T13:44:34.820Z,29.37
2023-12-17T13:47:01.915Z,30.23
2023-12-17T13:49:30.764Z,28.03
2023-12-17T13:51:57.827Z,30.60
2023-12-17T13:54:24.802Z,30.60
2023-12-17T13:56:51.962Z,29.17
2023-12-17T13:59:19.076Z,30.10
2023-12-17T14:01:46.973Z,29.97
2023-12-17T14:04:14.769Z,29.17
2023-12-17T14:06:41.962Z,29.13
2023-12-17T14:09:09.172Z,29.10
2023-12-17T14:11:39.649Z,28.93
2023-12-17T14:14:07.443Z,30.67
2023-12-17T14:16:34.829Z,30.30
2023-12-17T14:19:01.987Z,30.30
2023-12-17T14:21:30.571Z,30.97
2023-12-17T14:23:57.764Z,30.93
2023-12-17T14:26:25.216Z,30.83
2023-12-17T14:28:52.245Z,32.47
2023-12-17T14:31:19.316Z,32.10
2023-12-17T14:33:46.904Z,31.90
2023-12-17T14:36:14.735Z,30.00
2023-12-17T14:38:41.851Z,30.97
2023-12-17T14:41:09.540Z,32.10
2023-12-17T14:43:36.606Z,28.83
2023-12-17T14:46:04.754Z,30.80
2023-12-17T14:48:31.976Z,31.00
2023-12-17T14:50:59.366Z,30.43
2023-12-17T14:53:26.703Z,30.20
2023-12-17T14:55:53.816Z,30.53
2023-12-17T14:58:20.788Z,29.93
2023-12-17T15:00:49.347Z,29.30
2023-12-17T15:03:16.794Z,30.43
2023-12-17T15:05:43.951Z,26.70
2023-12-17T15:08:10.979Z,30.37
2023-12-17T15:10:38.284Z,31.23
2023-12-17T15:13:06.607Z,30.47
2023-12-17T15:15:34.708Z,36.08
2023-12-17T15:18:02.287Z,31.03
2023-12-17T15:20:29.899Z,30.20
2023-12-17T15:22:57.002Z,36.13
2023-12-17T15:25:24.160Z,31.93
2023-12-17T15:27:51.166Z,30.27
2023-12-17T15:30:18.527Z,28.20
2023-12-17T15:32:45.756Z,29.57
2023-12-17T15:35:13.508Z,30.53
2023-12-17T15:37:43.228Z,30.00
2023-12-17T15:40:10.903Z,28.83
2023-12-17T15:42:37.964Z,31.60
2023-12-17T15:45:05.732Z,30.70
2023-12-17T15:47:37.140Z,30.47
2023-12-17T15:50:09.159Z,32.27
2023-12-17T15:52:36.199Z,32.20
2023-12-17T15:55:03.208Z,30.87
2023-12-17T15:57:30.390Z,32.97
2023-12-17T15:59:57.566Z,33.30
2023-12-17T16:02:24.573Z,33.07
2023-12-17T16:04:51.492Z,34.17
2023-12-17T16:07:18.497Z,30.57
2023-12-17T16:09:45.512Z,32.87
2023-12-17T16:12:12.635Z,32.53
2023-12-17T16:14:39.756Z,31.70
2023-12-17T16:17:07.044Z,32.40
2023-12-17T16:19:34.269Z,32.27
2023-12-17T16:22:01.333Z,33.63
2023-12-17T16:24:28.538Z,31.80
2023-12-17T16:26:55.666Z,30.30
2023-12-17T16:29:22.903Z,31.27
2023-12-17T16:31:50.509Z,32.67
2023-12-17T16:34:17.958Z,31.33
2023-12-17T16:36:45.602Z,31.70
2023-12-17T16:39:20.098Z,31.20
2023-12-17T16:41:47.253Z,30.83
2023-12-17T16:44:14.356Z,30.10
2023-12-17T16:46:42.027Z,30.97
2023-12-17T16:49:09.188Z,28.63
2023-12-17T16:51:36.463Z,31.60
2023-12-17T16:54:03.651Z,29.90
2023-12-17T16:56:30.827Z,30.73
2023-12-17T16:58:57.998Z,26.17
2023-12-17T17:01:25.570Z,32.70
2023-12-17T17:03:52.670Z,30.53
2023-12-17T17:06:19.740Z,31.10
2023-12-17T17:08:47.531Z,31.00
2023-12-17T17:11:14.637Z,31.27
2023-12-17T17:13:41.663Z,30.93
2023-12-17T17:16:08.733Z,32.23
2023-12-17T17:18:36.493Z,32.53
2023-12-17T17:21:03.967Z,32.40
2023-12-17T17:23:31.150Z,30.33
2023-12-17T17:25:58.807Z,31.20
2023-12-17T17:28:26.060Z,31.93
2023-12-17T17:30:53.293Z,31.73
2023-12-17T17:33:23.247Z,30.67
2023-12-17T17:35:51.247Z,30.73
2023-12-17T17:38:18.369Z,31.03
2023-12-17T17:40:45.437Z,31.17
2023-12-17T17:43:13.147Z,30.13
2023-12-17T17:45:40.203Z,30.07
2023-12-17T17:48:07.905Z,31.57
2023-12-17T17:50:35.088Z,29.50
2023-12-17T17:53:03.558Z,29.73
2023-12-17T17:55:33.519Z,29.80
2023-12-17T17:58:00.681Z,28.63
2023-12-17T18:00:28.170Z,31.87
2023-12-17T18:02:56.045Z,29.50
2023-12-17T18:05:23.159Z,27.47
2023-12-17T18:07:50.784Z,29.43
2023-12-17T18:10:18.021Z,28.43
2023-12-17T18:12:45.372Z,28.57
2023-12-17T18:15:12.656Z,28.33
2023-12-17T18:17:39.698Z,27.13
2023-12-17T18:20:07.701Z,28.53
2023-12-17T18:22:36.986Z,28.30
2023-12-17T18:25:04.916Z,26.93
2023-12-17T18:27:32.220Z,27.33
2023-12-17T18:29:59.521Z,27.57
2023-12-17T18:32:26.710Z,28.85
2023-12-17T18:34:54.419Z,31.50
2023-12-17T18:37:23.313Z,27.37
2023-12-17T18:39:55.706Z,25.93
2023-12-17T18:42:26.368Z,25.60
2023-12-17T18:44:53.486Z,25.60
2023-12-17T18:47:22.281Z,26.27
2023-12-17T18:49:49.727Z,26.27
2023-12-17T18:52:16.815Z,24.43
2023-12-17T18:55:08.559Z,26.27
2023-12-17T18:57:35.823Z,24.63
2023-12-17T19:00:03.006Z,25.63
2023-12-17T19:02:31.335Z,25.13
2023-12-17T19:04:58.478Z,25.10
2023-12-17T19:07:25.589Z,24.23
2023-12-17T19:09:52.622Z,23.37
2023-12-17T19:12:20.281Z,23.57
2023-12-17T19:14:47.997Z,20.07
2023-12-17T19:17:16.549Z,22.23
2023-12-17T19:19:45.164Z,23.83
2023-12-17T19:22:13.821Z,23.60
2023-12-17T19:24:41.047Z,23.80
2023-12-17T19:27:08.069Z,22.47
2023-12-17T19:29:36.002Z,20.87
2023-12-17T19:32:03.860Z,23.77
2023-12-17T19:34:39.840Z,22.10
2023-12-17T19:37:07.690Z,22.50
2023-12-17T19:39:38.162Z,23.00
2023-12-17T19:42:06.882Z,23.17
2023-12-17T19:44:34.626Z,23.00
2023-12-17T19:47:02.720Z,22.63
2023-12-17T19:49:30.325Z,24.13
2023-12-17T19:51:57.388Z,22.50
2023-12-17T19:54:24.468Z,21.50
2023-12-17T19:56:51.536Z,25.30
2023-12-17T19:59:18.553Z,24.70
2023-12-17T20:01:49.003Z,23.43
2023-12-17T20:04:16.050Z,24.60
2023-12-17T20:06:43.226Z,24.50
2023-12-17T20:09:10.415Z,23.57
2023-12-17T20:11:37.720Z,24.47
2023-12-17T20:14:04.625Z,25.10
2023-12-17T20:16:31.673Z,25.60
2023-12-17T20:18:59.130Z,24.80
2023-12-17T20:21:26.321Z,24.97
2023-12-17T20:23:53.821Z,25.10
2023-12-17T20:26:20.792Z,25.73
2023-12-17T20:28:49.111Z,25.67
2023-12-17T20:31:17.143Z,24.70
2023-12-17T20:33:45.602Z,25.67
2023-12-17T20:36:16.048Z,25.27
2023-12-17T20:38:43.136Z,23.83
2023-12-17T20:41:10.287Z,26.57
2023-12-17T20:43:38.234Z,24.53
2023-12-17T20:46:05.498Z,24.63
2023-12-17T20:48:32.606Z,25.13
2023-12-17T20:50:59.768Z,22.77
2023-12-17T20:53:26.736Z,24.53
2023-12-17T20:55:53.811Z,22.77
2023-12-17T20:58:20.900Z,23.30
2023-12-17T21:00:48.802Z,22.93
2023-12-17T21:03:16.041Z,23.53
2023-12-17T21:05:43.197Z,23.83
2023-12-17T21:08:10.350Z,23.90
2023-12-17T21:10:37.437Z,22.73
2023-12-17T21:13:04.844Z,22.30
2023-12-17T21:15:31.907Z,22.47
2023-12-17T21:17:59.041Z,23.97
2023-12-17T21:20:26.081Z,25.27
2023-12-17T21:22:52.976Z,25.37
2023-12-17T21:25:20.025Z,24.03
2023-12-17T21:27:47.497Z,23.60
2023-12-17T21:30:15.089Z,25.37
2023-12-17T21:32:43.001Z,25.40
2023-12-17T21:35:10.497Z,24.13
2023-12-17T21:37:37.607Z,23.10
2023-12-17T21:40:05.872Z,24.67
2023-12-17T21:42:32.969Z,22.83
2023-12-17T21:45:00.173Z,24.33
2023-12-17T21:47:27.262Z,22.10
2023-12-17T21:49:54.278Z,23.23
2023-12-17T21:52:29.757Z,23.73
2023-12-17T21:55:01.153Z,22.00
2023-12-17T21:57:40.372Z,22.60
2023-12-17T22:00:18.789Z,20.53
2023-12-17T22:02:46.834Z,20.77
2023-12-17T22:05:14.157Z,19.00
2023-12-17T22:07:41.833Z,19.07
2023-12-17T22:10:12.740Z,19.33
2023-12-17T22:12:39.790Z,17.83
2023-12-17T22:15:09.150Z,18.73
2023-12-17T22:17:37.340Z,18.53
2023-12-17T22:20:05.588Z,19.20
2023-12-17T22:22:32.954Z,18.13
2023-12-17T22:25:00.248Z,18.93
2023-12-17T22:27:28.783Z,17.57
2023-12-17T22:29:55.705Z,17.03
2023-12-17T22:32:22.838Z,18.47
2023-12-17T22:34:49.956Z,16.43
2023-12-17T22:37:17.000Z,16.30
2023-12-17T22:39:44.147Z,17.27
2023-12-17T22:42:11.993Z,16.17
2023-12-17T22:44:39.067Z,16.60
2023-12-17T22:47:06.058Z,16.03
2023-12-17T22:49:33.159Z,15.87
2023-12-17T22:52:00.234Z,16.53
2023-12-17T22:54:27.226Z,15.73
2023-12-17T22:56:54.213Z,15.70
2023-12-17T22:59:21.214Z,14.67
2023-12-17T23:01:51.231Z,15.00
2023-12-17T23:04:18.311Z,14.53
2023-12-17T23:06:45.476Z,15.97
2023-12-17T23:09:12.890Z,15.17
2023-12-17T23:11:39.927Z,15.20
2023-12-17T23:14:06.914Z,14.80
2023-12-17T23:16:33.958Z,14.33
2023-12-17T23:19:00.945Z,14.40
2023-12-17T23:21:28.095Z,13.73
2023-12-17T23:23:55.592Z,14.27
2023-12-17T23:26:22.797Z,14.33
2023-12-17T23:28:49.889Z,13.07
2023-12-17T23:31:16.969Z,13.77
2023-12-17T23:33:44.735Z,13.37
2023-12-17T23:36:11.798Z,13.40
2023-12-17T23:38:38.965Z,13.27
2023-12-17T23:41:05.956Z,12.67
2023-12-17T23:43:32.993Z,13.40
2023-12-17T23:46:00.069Z,13.50
2023-12-17T23:48:27.188Z,13.23
2023-12-17T23:50:54.270Z,12.63
2023-12-17T23:53:21.610Z,12.97
2023-12-17T23:55:48.711Z,13.17
2023-12-17T23:58:15.726Z,12.57
